Colonial Heights, Tennessee
Current Conditions -  °F | °C
As of 9:53 AM on Thursday 30 Oct 2014 (Local Time) from KTRI Reporting Station
Haze Haze  
Wind Chill: 41°   Ceiling: 200
Heat Index: 41°   Visibility: 1mi
Dew Point: 41°   Wind: 0mph
Humidity: 100%   Direction: NA
Pressure: 30.13"   Gusts: NA
Location:  36.4621°N, 82.5069°W
Report Text: KTRI 301353Z 00000KT 1SM BR VV002 05/05 A3013 RMK AO2 SLP196 T00500050
Loading
Personal Weather Stations






























Interactive Weather Map
Tropical Storm Tracking
New forecast layout! Learn more

10-Day Weather Forecast

Advertisements
Track Severe Weather on mobile